Change the Weather History Date:

Wednesday, September 25, 2013

  Actual Average Record
Temperature  
Mean Temperature 58 °F -  
Max Temperature 68 °F 58 °F 73 °F (1998)
Min Temperature 48 °F 46 °F 35 °F (2003)
Degree Days  
Heating Degree Days 7    
Growing Degree Days 8 (Base 50)    
Moisture  
Dew Point 55 °F    
Average Humidity 90    
Maximum Humidity 100    
Minimum Humidity 64    
Precipitation  
Precipitation 0.00 in - - ()
Sea Level Pressure  
Sea Level Pressure 29.87 in    
Wind  
Wind Speed 4 mph ()    
Max Wind Speed 7 mph    
Max Gust Speed -    
Visibility 1.4 miles    
Events Fog    
Averages and records for this station are not official NWS values.
T = Trace of Precipitation, MM = Missing Value Source: Averaged Metar Reports

Daily Weather History Graph

Daily Weather History Graph

Search for Another Location

Airport or City:

Trip Planner

Search our weather history database for the weather conditions in past years. The results will help you decide how hot, cold, wet, or windy it might be!

Date:

Astronomy

Sep. 25, 2013 Rise Set
Actual Time 7:33 AM CEST 7:33 PM CEST
Civil Twilight 7:00 AM CEST 8:07 PM CEST
Nautical Twilight 6:21 AM CEST 8:46 PM CEST
Astronomical Twilight 5:40 AM CEST 9:26 PM CEST
Moon 10:50 PM CEST (9/25) 2:03 PM CEST (9/25)
Length of Visible Light 13h 06m
Length of Day
12h 00m
Waning Gibbous, 66% of the Moon is Illuminated
Sep 25
Waning Gibbous
Sep 27
Last Quarter
Oct 5
New
Oct 12
First Quarter
Oct 19
Full

Hourly Weather History & Observations

Time (CEST) Temp. Dew Point Humidity Pressure Visibility Wind Dir Wind Speed Gust Speed Precip Events Conditions
12:25 AM 53.6 °F 53.6 °F 100% 29.95 in 1.1 mi East 6.9 mph - N/A   Mist
12:55 AM 55.4 °F 55.4 °F 100% 29.95 in 1.5 mi East 6.9 mph - N/A   Mist
1:25 AM 55.4 °F 53.6 °F 94% 29.95 in 1.2 mi East 5.8 mph - N/A   Mist
1:55 AM 51.8 °F 51.8 °F 100% 29.92 in 1.2 mi East 4.6 mph - N/A   Mist
2:17 AM 51.8 °F 51.8 °F 100% 29.92 in 0.9 mi ENE 4.6 mph - N/A   Mist
2:25 AM 53.6 °F 51.8 °F 94% 29.92 in 1.1 mi East 3.5 mph - N/A   Mist
2:29 AM 51.8 °F 51.8 °F 100% 29.92 in 0.9 mi East 3.5 mph - N/A   Mist
2:35 AM 53.6 °F 51.8 °F 94% 29.92 in 1.3 mi East 4.6 mph - N/A   Mist
2:48 AM 51.8 °F 51.8 °F 100% 29.92 in 1.5 mi East 4.6 mph - N/A   Mist
2:55 AM 51.8 °F 51.8 °F 100% 29.92 in 1.5 mi East 4.6 mph - N/A   Mist
3:00 AM 51.8 °F 51.8 °F 100% 29.92 in 0.6 mi East 4.6 mph - N/A Fog Fog
3:06 AM 51.8 °F 51.8 °F 100% 29.92 in 0.4 mi East 4.6 mph - N/A Fog Fog
3:07 AM 53.6 °F 53.6 °F 100% 29.92 in 1.1 mi East 4.6 mph - N/A   Mist
3:14 AM 53.6 °F 53.6 °F 100% 29.89 in 0.9 mi East 4.6 mph - N/A   Mist
3:25 AM 53.6 °F 53.6 °F 100% 29.89 in 0.9 mi East 4.6 mph - N/A   Mist
3:30 AM 53.6 °F 53.6 °F 100% 29.89 in 1.0 mi East 4.6 mph - N/A   Mist
3:32 AM 53.6 °F 53.6 °F 100% 29.89 in 0.9 mi East 4.6 mph - N/A   Mist
3:38 AM 53.6 °F 53.6 °F 100% 29.89 in 1.1 mi East 4.6 mph - N/A   Mist
3:48 AM 51.8 °F 51.8 °F 100% 29.89 in 1.1 mi East 3.5 mph - N/A   Mist
3:55 AM 51.8 °F 50.0 °F 94% 29.89 in 1.1 mi ENE 3.5 mph - N/A   Mist
3:58 AM 50.0 °F 50.0 °F 100% 29.89 in 0.8 mi ENE 3.5 mph - N/A   Mist
4:06 AM 50.0 °F 50.0 °F 100% 29.89 in 0.4 mi ENE 2.3 mph - N/A Fog Fog
4:11 AM 50.0 °F 50.0 °F 100% 29.89 in 0.6 mi ENE 2.3 mph - N/A Fog Fog
4:14 AM 50.0 °F 50.0 °F 100% 29.89 in 0.4 mi ENE 2.3 mph - N/A Fog Fog
4:19 AM 50.0 °F 50.0 °F 100% 29.89 in 1.2 mi East 2.3 mph - N/A   Mist
4:25 AM 50.0 °F 50.0 °F 100% 29.89 in 0.2 mi East 2.3 mph - N/A Fog Fog
4:29 AM 50.0 °F 50.0 °F 100% 29.89 in 1.2 mi East 2.3 mph - N/A   Mist
4:32 AM 50.0 °F 50.0 °F 100% 29.89 in - East 2.3 mph - N/A   Mist
4:37 AM 50.0 °F 50.0 °F 100% 29.89 in 1.6 mi East 2.3 mph - N/A   Mist
4:41 AM 50.0 °F 50.0 °F 100% 29.89 in 0.3 mi East 2.3 mph - N/A Fog Fog
4:55 AM 50.0 °F 50.0 °F 100% 29.89 in 0.2 mi NNE 1.2 mph - N/A Fog Fog
5:25 AM 48.2 °F 48.2 °F 100% 29.89 in 0.1 mi NNE 1.2 mph - N/A Fog Fog
5:55 AM 50.0 °F 50.0 °F 100% 29.89 in 0.1 mi NE 1.2 mph - N/A Fog Fog
6:01 AM 50.0 °F 50.0 °F 100% 29.89 in 0.7 mi NE 1.2 mph - N/A   Mist
6:03 AM 50.0 °F 50.0 °F 100% 29.89 in 0.2 mi NNE 1.2 mph - N/A Fog Fog
6:25 AM 50.0 °F 50.0 °F 100% 29.89 in 0.1 mi ENE 2.3 mph - N/A Fog Fog
6:55 AM 50.0 °F 50.0 °F 100% 29.89 in 0.1 mi ENE 1.2 mph - N/A Fog Fog
7:25 AM 50.0 °F 50.0 °F 100% 29.86 in 0.1 mi East 3.5 mph - N/A   Drizzle
7:44 AM 51.8 °F 50.0 °F 94% 29.86 in 0.1 mi ENE 3.5 mph - N/A   Drizzle
7:55 AM 51.8 °F 51.8 °F 100% 29.86 in - ENE 3.5 mph - N/A Fog Fog
8:00 AM 51.8 °F 50.0 °F 94% 29.86 in - ENE 2.3 mph - N/A Fog Fog
8:06 AM 50.0 °F 50.0 °F 100% 29.86 in 0.5 mi ENE 2.3 mph - N/A Fog Fog
8:11 AM 50.0 °F 50.0 °F 100% 29.86 in 1.0 mi East 2.3 mph - N/A   Mostly Cloudy
8:17 AM 51.8 °F 51.8 °F 100% 29.86 in 0.9 mi East 1.2 mph - N/A   Mostly Cloudy
8:25 AM 51.8 °F 51.8 °F 100% 29.86 in 0.9 mi Calm Calm - N/A   Partly Cloudy
8:36 AM 51.8 °F 51.8 °F 100% 29.86 in 0.6 mi East 3.5 mph - N/A Fog Fog
8:55 AM 53.6 °F 53.6 °F 100% 29.86 in 0.7 mi ENE 3.5 mph - N/A   Mostly Cloudy
9:07 AM 53.6 °F 53.6 °F 100% 29.86 in 0.9 mi ENE 3.5 mph - N/A   Overcast
9:25 AM 55.4 °F 53.6 °F 94% 29.86 in 0.9 mi ENE 4.6 mph - N/A   Overcast
9:28 AM 55.4 °F 53.6 °F 94% 29.86 in 1.2 mi ENE 4.6 mph - N/A   Mostly Cloudy
9:55 AM 55.4 °F 55.4 °F 100% 29.86 in 1.1 mi East 3.5 mph - N/A   Scattered Clouds
10:25 AM 57.2 °F 55.4 °F 94% 29.86 in 1.1 mi ENE 3.5 mph - N/A   Overcast
10:42 AM 57.2 °F 57.2 °F 100% 29.86 in 1.4 mi East 3.5 mph - N/A   Partly Cloudy
10:55 AM 59.0 °F 57.2 °F 94% 29.86 in 1.5 mi East 3.5 mph - N/A   Partly Cloudy
11:25 AM 59.0 °F 57.2 °F 94% 29.86 in 1.7 mi ENE 2.3 mph - N/A   Overcast
11:33 AM 60.8 °F 57.2 °F 88% 29.86 in 1.7 mi East 2.3 mph - N/A   Overcast
11:55 AM 60.8 °F 57.2 °F 88% 29.86 in - East 3.5 mph - N/A   Mostly Cloudy
12:25 PM 60.8 °F 57.2 °F 88% 29.86 in - East 2.3 mph - N/A   Partly Cloudy
12:32 PM 60.8 °F 57.2 °F 88% 29.86 in - ENE 2.3 mph - N/A   Mist
12:45 PM 64.4 °F 59.0 °F 83% 29.86 in - ESE 2.3 mph - N/A   Partly Cloudy
12:49 PM 64.4 °F 57.2 °F 77% 29.86 in 3.1 mi South 2.3 mph - N/A   Mostly Cloudy
12:55 PM 64.4 °F 59.0 °F 83% 29.86 in 2.8 mi SSE 1.2 mph - N/A   Overcast
1:00 PM 64.4 °F 57.2 °F 77% 29.86 in 3.1 mi SSE 2.3 mph - N/A   Haze
1:04 PM 64.4 °F 57.2 °F 77% 29.86 in - SSE 2.3 mph - N/A   Haze
1:07 PM 64.4 °F 57.2 °F 77% 29.86 in - SSE 2.3 mph - N/A   Haze
1:10 PM 64.4 °F 57.2 °F 77% 29.86 in 2.8 mi SE 1.2 mph - N/A   Haze
1:20 PM 66.2 °F 59.0 °F 78% 29.86 in 3.1 mi NE 1.2 mph - N/A   Haze
1:25 PM 66.2 °F 57.2 °F 73% 29.86 in 3.1 mi ENE 2.3 mph - N/A   Haze
1:37 PM 68.0 °F 55.4 °F 64% 29.86 in 3.1 mi NW 1.2 mph - N/A   Haze
1:55 PM 68.0 °F 55.4 °F 64% 29.86 in 3.7 mi SW 2.3 mph - N/A   Haze
2:25 PM 68.0 °F 55.4 °F 64% 29.86 in 3.7 mi SSW 3.5 mph - N/A   Haze
2:55 PM 68.0 °F 55.4 °F 64% 29.83 in 3.7 mi West 4.6 mph - N/A   Haze
3:25 PM 68.0 °F 55.4 °F 64% 29.83 in 3.1 mi West 4.6 mph - N/A   Haze
3:29 PM 68.0 °F 57.2 °F 68% 29.83 in - West 4.6 mph - N/A   Haze
3:47 PM 68.0 °F 55.4 °F 64% 29.83 in 3.1 mi WSW 4.6 mph - N/A   Haze
3:55 PM 68.0 °F 55.4 °F 64% 29.83 in 3.1 mi WSW 4.6 mph - N/A   Haze
4:08 PM 68.0 °F 57.2 °F 68% 29.83 in 3.1 mi West 6.9 mph - N/A   Haze
4:09 PM 68.0 °F 55.4 °F 64% 29.83 in - WSW 6.9 mph - N/A   Haze
4:25 PM 68.0 °F 57.2 °F 68% 29.83 in 2.8 mi WSW 6.9 mph - N/A   Haze
4:55 PM 68.0 °F 57.2 °F 68% 29.83 in - WSW 6.9 mph - N/A   Haze
5:25 PM 66.2 °F 57.2 °F 73% 29.83 in - WSW 4.6 mph - N/A   Haze
5:55 PM 66.2 °F 57.2 °F 73% 29.83 in - West 4.6 mph - N/A   Haze
6:01 PM 66.2 °F 57.2 °F 73% 29.83 in 3.1 mi West 4.6 mph - N/A   Haze
6:07 PM 66.2 °F 57.2 °F 73% 29.83 in - WSW 4.6 mph - N/A   Haze
6:10 PM 66.2 °F 57.2 °F 73% 29.83 in 3.1 mi WSW 4.6 mph - N/A   Haze
6:16 PM 66.2 °F 57.2 °F 73% 29.83 in - WSW 4.6 mph - N/A   Haze
6:25 PM 66.2 °F 57.2 °F 73% 29.83 in 3.1 mi WSW 4.6 mph - N/A   Haze
6:36 PM 64.4 °F 59.0 °F 83% 29.83 in 3.1 mi WSW 4.6 mph - N/A   Haze
6:46 PM 64.4 °F 59.0 °F 83% 29.83 in - SW 3.5 mph - N/A   Haze
6:55 PM 64.4 °F 57.2 °F 77% 29.83 in - SW 2.3 mph - N/A   Haze
7:15 PM 62.6 °F 59.0 °F 88% 29.83 in - West 2.3 mph - N/A   Scattered Clouds
7:20 PM 62.6 °F 59.0 °F 88% 29.83 in - West 1.2 mph - N/A   Mostly Cloudy
7:25 PM 62.6 °F 59.0 °F 88% 29.83 in - West 1.2 mph - N/A   Mostly Cloudy
7:31 PM 62.6 °F 59.0 °F 88% 29.83 in - WSW 1.2 mph - N/A   Mostly Cloudy
7:34 PM 62.6 °F 59.0 °F 88% 29.83 in - West 2.3 mph - N/A   Mostly Cloudy
7:47 PM 62.6 °F 59.0 °F 88% 29.83 in - WNW 4.6 mph - N/A   Mostly Cloudy
7:55 PM 62.6 °F 59.0 °F 88% 29.83 in - WNW 3.5 mph - N/A   Mostly Cloudy
8:25 PM 62.6 °F 57.2 °F 82% 29.83 in - WNW 3.5 mph - N/A   Mostly Cloudy
8:32 PM 60.8 °F 57.2 °F 88% 29.83 in - WNW 3.5 mph - N/A   Mostly Cloudy
8:55 PM 60.8 °F 57.2 °F 88% 29.83 in - WNW 2.3 mph - N/A   Mostly Cloudy
9:25 PM 59.0 °F 59.0 °F 100% 29.86 in 1.7 mi WSW 1.2 mph - N/A   Overcast
9:55 PM 59.0 °F 59.0 °F 100% 29.86 in 1.7 mi WSW 1.2 mph - N/A   Overcast
10:25 PM 57.2 °F 57.2 °F 100% 29.86 in 1.3 mi West 2.3 mph - N/A   Partly Cloudy
10:55 PM 57.2 °F 55.4 °F 94% 29.86 in 0.6 mi WSW 2.3 mph - N/A   Scattered Clouds
10:59 PM 57.2 °F 57.2 °F 100% 29.86 in 1.0 mi WSW 1.2 mph - N/A   Scattered Clouds
11:05 PM 57.2 °F 57.2 °F 100% 29.86 in 0.8 mi SW 2.3 mph - N/A   Scattered Clouds
11:06 PM 57.2 °F 55.4 °F 94% 29.86 in 1.1 mi SSW 2.3 mph - N/A   Mostly Cloudy
11:14 PM 55.4 °F 55.4 °F 100% 29.86 in 0.9 mi SW 2.3 mph - N/A   Mostly Cloudy
11:18 PM 55.4 °F 55.4 °F 100% 29.86 in - SW 3.5 mph - N/A Fog Fog
11:25 PM 55.4 °F 55.4 °F 100% 29.86 in 0.6 mi WSW 3.5 mph - N/A Fog Fog
11:29 PM 55.4 °F 55.4 °F 100% 29.86 in 1.0 mi West 3.5 mph - N/A   Scattered Clouds
11:30 PM 55.4 °F 55.4 °F 100% 29.86 in 0.6 mi West 3.5 mph - N/A   Scattered Clouds
11:46 PM 55.4 °F 55.4 °F 100% 29.86 in 0.8 mi WSW 3.5 mph - N/A   Mostly Cloudy
11:47 PM 55.4 °F 55.4 °F 100% 29.86 in 0.2 mi WSW 3.5 mph - N/A Fog Fog
11:55 PM 55.4 °F 55.4 °F 100% 29.86 in 0.5 mi WSW 3.5 mph - N/A Fog Fog